createdAt,value
2019-02-14T00:00:43.482Z,6.10
2019-02-14T00:03:16.988Z,6.00
2019-02-14T00:05:55.761Z,6.00
2019-02-14T00:08:27.829Z,5.90
2019-02-14T00:11:06.436Z,5.90
2019-02-14T00:13:38.397Z,5.80
2019-02-14T00:16:09.854Z,5.80
2019-02-14T00:18:41.626Z,5.80
2019-02-14T00:21:12.987Z,5.70
2019-02-14T00:26:56.076Z,5.60
2019-02-14T00:29:39.037Z,5.50
2019-02-14T00:32:19.301Z,6.50
2019-02-14T00:34:58.239Z,5.40
2019-02-14T00:37:30.917Z,5.30
2019-02-14T00:40:08.130Z,5.30
2019-02-14T00:42:40.939Z,5.20
2019-02-14T00:45:17.436Z,5.20
2019-02-14T00:47:48.790Z,4.90
2019-02-14T00:50:20.331Z,5.10
2019-02-14T00:52:52.126Z,4.50
2019-02-14T00:55:38.404Z,5.00
2019-02-14T00:58:09.984Z,5.10
2019-02-14T01:01:01.789Z,5.00
2019-02-14T01:03:40.093Z,4.90
2019-02-14T01:06:20.658Z,4.90
2019-02-14T01:09:09.615Z,5.50
2019-02-14T01:12:10.317Z,4.90
2019-02-14T01:15:10.258Z,4.80
2019-02-14T01:20:35.155Z,4.50
2019-02-14T01:23:12.536Z,5.20
2019-02-14T01:29:08.842Z,4.60
2019-02-14T01:31:40.586Z,4.50
2019-02-14T01:37:44.428Z,4.60
2019-02-14T01:40:09.286Z,4.50
2019-02-14T01:43:02.562Z,4.50
2019-02-14T01:45:53.257Z,4.50
2019-02-14T01:48:30.406Z,4.40
2019-02-14T01:51:12.429Z,4.40
2019-02-14T01:53:51.793Z,4.30
2019-02-14T01:56:32.193Z,4.30
2019-02-14T01:59:07.166Z,4.30
2019-02-14T02:01:48.639Z,4.30
2019-02-14T02:04:25.838Z,4.30
2019-02-14T02:07:11.482Z,4.30
2019-02-14T02:09:43.175Z,4.30
2019-02-14T02:15:14.804Z,4.20
2019-02-14T02:17:46.314Z,4.30
2019-02-14T02:20:17.852Z,4.10
2019-02-14T02:25:20.362Z,3.90
2019-02-14T02:27:52.770Z,4.20
2019-02-14T02:30:28.841Z,4.80
2019-02-14T02:33:13.351Z,4.00
2019-02-14T02:35:44.759Z,4.30
2019-02-14T02:38:18.584Z,4.20
2019-02-14T02:40:50.211Z,4.10
2019-02-14T02:43:31.111Z,4.40
2019-02-14T02:46:16.330Z,4.40
2019-02-14T02:48:55.741Z,4.60
2019-02-14T02:54:20.096Z,4.00
2019-02-14T02:57:00.764Z,4.70
2019-02-14T02:59:32.306Z,4.80
2019-02-14T03:02:06.982Z,4.80
2019-02-14T03:04:38.257Z,4.90
2019-02-14T04:06:17.417Z,5.40
2019-02-14T04:08:52.018Z,5.20
2019-02-14T04:11:39.789Z,5.60
2019-02-14T04:14:16.785Z,5.40
2019-02-14T04:16:49.733Z,6.80
2019-02-14T04:19:20.994Z,5.70
2019-02-14T04:21:52.531Z,5.70
2019-02-14T04:24:23.962Z,5.80
2019-02-14T04:26:55.445Z,5.90
2019-02-14T04:29:27.034Z,5.80
2019-02-14T04:32:00.890Z,6.00
2019-02-14T04:34:33.765Z,5.50
2019-02-14T04:37:05.949Z,5.80
2019-02-14T04:39:41.906Z,5.80
2019-02-14T04:42:15.056Z,6.60
2019-02-14T04:45:01.440Z,5.80
2019-02-14T04:47:23.259Z,5.90
2019-02-14T04:50:05.362Z,5.90
2019-02-14T04:52:37.540Z,5.70
2019-02-14T04:55:09.354Z,5.80
2019-02-14T04:58:05.610Z,5.80
2019-02-14T05:00:49.524Z,6.00
2019-02-14T05:03:21.842Z,5.00
2019-02-14T05:05:53.219Z,5.70
2019-02-14T05:08:24.856Z,5.80
2019-02-14T05:10:56.142Z,5.70
2019-02-14T05:13:27.853Z,5.90
2019-02-14T05:15:59.336Z,5.90
2019-02-14T05:18:33.751Z,5.90
2019-02-14T05:21:05.121Z,6.10
2019-02-14T05:23:39.351Z,5.90
2019-02-14T05:26:12.157Z,6.00
2019-02-14T05:28:45.062Z,6.00
2019-02-14T05:31:16.547Z,6.10
2019-02-14T05:33:48.089Z,6.10
2019-02-14T05:36:19.676Z,6.30
2019-02-14T05:38:52.848Z,6.00
2019-02-14T05:41:24.542Z,6.30
2019-02-14T05:43:56.181Z,6.20
2019-02-14T05:46:28.699Z,6.60
2019-02-14T05:49:00.010Z,6.30
2019-02-14T05:51:31.697Z,6.30
2019-02-14T05:54:04.885Z,6.30
2019-02-14T05:56:36.288Z,6.40
2019-02-14T05:59:07.966Z,6.60
2019-02-14T06:01:39.553Z,6.60
2019-02-14T06:04:10.935Z,6.40
2019-02-14T06:06:42.346Z,6.40
2019-02-14T06:09:14.194Z,6.80
2019-02-14T06:11:45.861Z,6.50
2019-02-14T06:14:17.578Z,6.50
2019-02-14T06:16:48.950Z,6.60
2019-02-14T06:19:20.329Z,6.50
2019-02-14T06:21:53.409Z,6.60
2019-02-14T06:24:24.666Z,6.60
2019-02-14T06:26:56.133Z,6.60
2019-02-14T06:29:34.828Z,6.60
2019-02-14T06:32:06.362Z,6.60
2019-02-14T06:34:38.835Z,6.70
2019-02-14T06:37:13.409Z,6.70
2019-02-14T06:39:44.785Z,6.70
2019-02-14T06:42:17.052Z,6.70
2019-02-14T06:44:49.165Z,6.60
2019-02-14T06:47:20.641Z,7.00
2019-02-14T06:49:52.656Z,6.80
2019-02-14T06:52:23.957Z,7.00
2019-02-14T06:54:55.838Z,6.80
2019-02-14T06:57:27.869Z,6.90
2019-02-14T06:59:59.161Z,6.80
2019-02-14T07:02:39.001Z,6.90
2019-02-14T07:05:11.049Z,7.00
2019-02-14T07:07:42.824Z,7.10
2019-02-14T07:10:15.104Z,7.10
2019-02-14T07:12:47.919Z,7.10
2019-02-14T07:15:19.421Z,7.10
2019-02-14T07:17:52.306Z,7.10
2019-02-14T07:20:24.633Z,7.10
2019-02-14T07:22:56.729Z,6.80
2019-02-14T07:25:28.294Z,7.20
2019-02-14T07:27:59.525Z,7.50
2019-02-14T07:30:31.128Z,7.10
2019-02-14T07:33:03.741Z,7.40
2019-02-14T07:35:36.578Z,7.40
2019-02-14T07:38:08.118Z,7.40
2019-02-14T07:40:39.823Z,7.40
2019-02-14T07:43:11.798Z,7.50
2019-02-14T07:45:43.606Z,7.50
2019-02-14T07:48:14.888Z,7.50
2019-02-14T07:50:46.374Z,7.60
2019-02-14T07:53:18.149Z,7.60
2019-02-14T07:55:50.423Z,7.60
2019-02-14T07:58:23.258Z,7.70
2019-02-14T08:00:55.609Z,7.70
2019-02-14T08:03:27.990Z,7.80
2019-02-14T08:06:00.319Z,7.80
2019-02-14T08:08:32.330Z,7.90
2019-02-14T08:11:05.430Z,8.00
2019-02-14T08:13:36.815Z,8.00
2019-02-14T08:16:08.485Z,8.00
2019-02-14T08:18:40.147Z,8.10
2019-02-14T08:21:11.650Z,8.20
2019-02-14T08:23:45.593Z,8.20
2019-02-14T08:26:16.910Z,8.20
2019-02-14T08:28:48.690Z,8.20
2019-02-14T08:31:21.025Z,8.30
2019-02-14T08:33:52.413Z,8.30
2019-02-14T08:36:25.066Z,8.30
2019-02-14T08:38:57.022Z,8.30
2019-02-14T08:41:28.419Z,8.40
2019-02-14T08:43:59.971Z,8.40
2019-02-14T08:46:33.085Z,8.40
2019-02-14T08:49:04.798Z,8.40
2019-02-14T08:51:37.630Z,8.50
2019-02-14T08:54:09.524Z,8.50
2019-02-14T08:56:41.809Z,8.50
2019-02-14T08:59:14.325Z,8.50
2019-02-14T09:01:45.817Z,8.50
2019-02-14T09:04:17.262Z,8.50
2019-02-14T09:06:48.818Z,8.50
2019-02-14T09:09:20.211Z,8.50
2019-02-14T09:11:51.882Z,8.50
2019-02-14T09:14:23.202Z,8.50
2019-02-14T09:16:54.615Z,8.50
2019-02-14T09:19:26.084Z,8.60
2019-02-14T09:21:59.696Z,8.80
2019-02-14T09:24:30.974Z,8.60
2019-02-14T09:27:02.476Z,8.60
2019-02-14T09:29:34.106Z,8.60
2019-02-14T09:32:05.910Z,8.70
2019-02-14T09:34:37.346Z,8.80
2019-02-14T09:37:08.794Z,8.70
2019-02-14T09:39:41.812Z,8.70
2019-02-14T09:42:14.046Z,8.40
2019-02-14T09:44:45.483Z,8.80
2019-02-14T09:50:20.721Z,8.80
2019-02-14T09:52:53.539Z,8.90
2019-02-14T09:55:24.863Z,9.00
2019-02-14T09:57:56.369Z,8.90
2019-02-14T10:00:27.703Z,9.00
2019-02-14T10:02:59.892Z,9.00
2019-02-14T10:05:31.550Z,9.00
2019-02-14T10:08:12.212Z,9.00
2019-02-14T10:10:36.664Z,9.00
2019-02-14T10:13:09.219Z,9.00
2019-02-14T10:15:41.128Z,9.00
2019-02-14T10:18:14.164Z,9.00
2019-02-14T10:20:46.010Z,9.00
2019-02-14T10:23:20.599Z,9.00
2019-02-14T10:25:52.704Z,9.00
2019-02-14T10:28:24.277Z,9.00
2019-02-14T10:30:56.474Z,9.00
2019-02-14T10:33:27.817Z,9.00
2019-02-14T10:35:59.161Z,9.00
2019-02-14T10:38:31.917Z,9.10
2019-02-14T10:41:03.599Z,9.20
2019-02-14T10:43:34.954Z,9.30
2019-02-14T10:46:07.072Z,9.40
2019-02-14T10:48:43.231Z,9.50
2019-02-14T10:51:14.555Z,9.60
2019-02-14T10:53:45.914Z,9.60
2019-02-14T10:56:17.490Z,9.70
2019-02-14T10:58:48.804Z,9.80
2019-02-14T11:01:20.737Z,9.80
2019-02-14T11:03:53.587Z,9.90
2019-02-14T11:06:24.858Z,9.90
2019-02-14T11:08:56.317Z,9.90
2019-02-14T11:11:29.223Z,9.90
2019-02-14T11:14:03.065Z,9.90
2019-02-14T11:16:34.831Z,9.90
2019-02-14T11:19:06.185Z,9.90
2019-02-14T11:21:38.237Z,9.90
2019-02-14T11:24:09.942Z,9.90
2019-02-14T11:26:41.650Z,9.90
2019-02-14T11:29:14.566Z,9.90
2019-02-14T11:31:46.527Z,10.00
2019-02-14T11:34:17.722Z,10.00
2019-02-14T11:36:49.026Z,9.90
2019-02-14T11:39:20.902Z,9.90
2019-02-14T11:41:52.397Z,9.90
2019-02-14T11:44:23.730Z,9.80
2019-02-14T11:46:58.583Z,9.70
2019-02-14T11:49:31.484Z,9.30
2019-02-14T11:52:02.793Z,9.80
2019-02-14T11:54:34.073Z,9.70
2019-02-14T11:57:05.559Z,9.70
2019-02-14T11:59:37.126Z,9.70
2019-02-14T12:02:08.439Z,9.70
2019-02-14T12:04:40.109Z,9.70
2019-02-14T12:07:11.930Z,9.80
2019-02-14T12:09:44.628Z,9.80
2019-02-14T12:12:16.054Z,9.80
2019-02-14T12:14:47.677Z,9.90
2019-02-14T12:17:19.045Z,9.90
2019-02-14T12:19:50.920Z,9.90
2019-02-14T12:22:22.458Z,10.00
2019-02-14T12:24:53.738Z,10.00
2019-02-14T12:27:25.017Z,10.00
2019-02-14T12:29:56.394Z,10.00
2019-02-14T12:32:27.801Z,10.00
2019-02-14T12:34:59.100Z,10.00
2019-02-14T12:37:30.989Z,9.90
2019-02-14T12:40:02.485Z,9.90
2019-02-14T12:42:35.128Z,9.90
2019-02-14T12:45:07.552Z,9.80
2019-02-14T12:47:39.037Z,9.80
2019-02-14T12:50:10.807Z,9.80
2019-02-14T12:52:44.014Z,9.80
2019-02-14T12:55:15.458Z,9.80
2019-02-14T12:57:47.773Z,9.90
2019-02-14T13:00:20.166Z,9.90
2019-02-14T13:02:52.541Z,9.90
2019-02-14T13:05:23.811Z,9.90
2019-02-14T13:07:55.336Z,9.90
2019-02-14T13:10:26.714Z,9.90
2019-02-14T13:12:58.089Z,9.80
2019-02-14T13:15:30.166Z,9.80
2019-02-14T13:18:01.789Z,9.80
2019-02-14T13:20:33.098Z,9.80
2019-02-14T13:23:04.565Z,9.70
2019-02-14T13:25:36.079Z,9.70
2019-02-14T13:28:07.563Z,9.70
2019-02-14T13:30:39.048Z,9.60
2019-02-14T13:33:10.730Z,9.60
2019-02-14T13:35:43.895Z,9.60
2019-02-14T13:38:15.389Z,9.60
2019-02-14T13:40:46.999Z,9.60
2019-02-14T13:43:20.267Z,9.50
2019-02-14T13:45:51.723Z,9.40
2019-02-14T13:48:23.620Z,9.40
2019-02-14T13:50:57.439Z,9.40
2019-02-14T13:53:28.801Z,9.40
2019-02-14T13:56:01.362Z,9.30
2019-02-14T13:58:34.401Z,9.30
2019-02-14T14:01:05.892Z,9.30
2019-02-14T14:03:39.364Z,9.20
2019-02-14T14:06:10.814Z,9.20
2019-02-14T14:08:42.813Z,9.20
2019-02-14T14:11:14.380Z,9.10
2019-02-14T14:13:45.844Z,9.20
2019-02-14T14:16:17.503Z,9.20
2019-02-14T14:18:48.928Z,9.10
2019-02-14T14:21:20.280Z,9.20
2019-02-14T14:23:51.685Z,9.20
2019-02-14T14:26:23.162Z,9.10
2019-02-14T14:28:54.643Z,9.10
2019-02-14T14:31:26.111Z,9.20
2019-02-14T14:33:57.790Z,9.20
2019-02-14T14:36:29.062Z,9.20
2019-02-14T14:39:01.875Z,9.20
2019-02-14T14:41:35.697Z,9.20
2019-02-14T14:44:28.924Z,9.20
2019-02-14T14:47:06.637Z,9.40
2019-02-14T14:49:38.273Z,9.70
2019-02-14T14:52:09.645Z,10.00
2019-02-14T14:54:41.168Z,10.30
2019-02-14T14:57:12.846Z,10.60
2019-02-14T14:59:46.557Z,10.80
2019-02-14T15:02:20.503Z,11.20
2019-02-14T15:04:52.139Z,11.20
2019-02-14T15:07:25.104Z,11.40
2019-02-14T15:09:57.819Z,11.60
2019-02-14T18:07:25.821Z,10.30
2019-02-14T18:09:57.313Z,10.40
2019-02-14T18:19:23.714Z,10.20
2019-02-14T18:27:57.313Z,10.00
2019-02-14T20:58:04.816Z,8.80
2019-02-14T22:18:39.276Z,8.50
2019-02-14T23:42:03.763Z,7.90
2019-02-14T23:44:55.066Z,7.90
2019-02-14T23:47:27.499Z,7.80
2019-02-14T23:50:04.513Z,7.80
2019-02-14T23:52:40.038Z,7.80
2019-02-14T23:55:26.835Z,7.70
2019-02-14T23:57:58.124Z,7.70
